sensor_id;sensor_type;location;lat;lon;timestamp;P1;durP1;ratioP1;P2;durP2;ratioP2
80255;SDS011;69564;37.974;23.708;2023-04-24T00:00:11;17.02;;;12.18;;
80255;SDS011;69564;37.974;23.708;2023-04-24T00:02:40;13.98;;;12.32;;
80255;SDS011;69564;37.974;23.708;2023-04-24T00:05:13;17.05;;;13.55;;
80255;SDS011;69564;37.974;23.708;2023-04-24T00:07:40;17.17;;;13.95;;
80255;SDS011;69564;37.974;23.708;2023-04-24T00:10:07;17.42;;;13.40;;
80255;SDS011;69564;37.974;23.708;2023-04-24T00:12:33;15.98;;;12.85;;
80255;SDS011;69564;37.974;23.708;2023-04-24T00:14:59;15.18;;;12.63;;
80255;SDS011;69564;37.974;23.708;2023-04-24T00:17:25;17.65;;;12.68;;
80255;SDS011;69564;37.974;23.708;2023-04-24T00:19:51;13.60;;;11.75;;
80255;SDS011;69564;37.974;23.708;2023-04-24T00:22:23;19.40;;;13.25;;
80255;SDS011;69564;37.974;23.708;2023-04-24T00:24:49;14.82;;;12.77;;
80255;SDS011;69564;37.974;23.708;2023-04-24T00:27:15;16.15;;;12.00;;
80255;SDS011;69564;37.974;23.708;2023-04-24T00:29:40;18.83;;;12.85;;
80255;SDS011;69564;37.974;23.708;2023-04-24T00:32:06;17.42;;;13.00;;
80255;SDS011;69564;37.974;23.708;2023-04-24T00:34:32;15.50;;;12.43;;
80255;SDS011;69564;37.974;23.708;2023-04-24T00:36:58;13.73;;;12.07;;
80255;SDS011;69564;37.974;23.708;2023-04-24T00:39:23;16.63;;;12.98;;
80255;SDS011;69564;37.974;23.708;2023-04-24T00:41:49;14.85;;;11.85;;
80255;SDS011;69564;37.974;23.708;2023-04-24T00:44:16;13.80;;;12.30;;
80255;SDS011;69564;37.974;23.708;2023-04-24T00:46:42;13.65;;;11.73;;
80255;SDS011;69564;37.974;23.708;2023-04-24T00:49:07;14.88;;;12.00;;
80255;SDS011;69564;37.974;23.708;2023-04-24T00:51:33;16.45;;;12.13;;
80255;SDS011;69564;37.974;23.708;2023-04-24T00:53:59;15.48;;;12.77;;
80255;SDS011;69564;37.974;23.708;2023-04-24T00:56:28;14.63;;;11.80;;
80255;SDS011;69564;37.974;23.708;2023-04-24T00:58:54;14.75;;;11.80;;
80255;SDS011;69564;37.974;23.708;2023-04-24T01:01:21;15.80;;;12.10;;
80255;SDS011;69564;37.974;23.708;2023-04-24T01:03:47;14.88;;;12.18;;
80255;SDS011;69564;37.974;23.708;2023-04-24T01:06:15;14.73;;;11.77;;
80255;SDS011;69564;37.974;23.708;2023-04-24T01:08:43;14.07;;;12.60;;
80255;SDS011;69564;37.974;23.708;2023-04-24T01:11:10;15.73;;;12.15;;
80255;SDS011;69564;37.974;23.708;2023-04-24T01:13:36;13.93;;;12.27;;
80255;SDS011;69564;37.974;23.708;2023-04-24T01:16:02;14.02;;;12.13;;
80255;SDS011;69564;37.974;23.708;2023-04-24T01:18:28;16.08;;;11.60;;
80255;SDS011;69564;37.974;23.708;2023-04-24T01:20:56;14.55;;;12.07;;
80255;SDS011;69564;37.974;23.708;2023-04-24T01:23:23;15.65;;;12.15;;
80255;SDS011;69564;37.974;23.708;2023-04-24T01:25:49;14.15;;;11.88;;
80255;SDS011;69564;37.974;23.708;2023-04-24T01:28:16;16.17;;;11.48;;
80255;SDS011;69564;37.974;23.708;2023-04-24T01:30:42;16.10;;;11.45;;
80255;SDS011;69564;37.974;23.708;2023-04-24T01:33:08;13.35;;;11.98;;
80255;SDS011;69564;37.974;23.708;2023-04-24T01:35:35;14.90;;;12.00;;
80255;SDS011;69564;37.974;23.708;2023-04-24T01:38:02;14.50;;;11.68;;
80255;SDS011;69564;37.974;23.708;2023-04-24T01:40:28;14.88;;;11.50;;
80255;SDS011;69564;37.974;23.708;2023-04-24T01:42:54;14.52;;;11.88;;
80255;SDS011;69564;37.974;23.708;2023-04-24T01:45:20;14.98;;;11.82;;
80255;SDS011;69564;37.974;23.708;2023-04-24T01:47:45;14.18;;;11.77;;
80255;SDS011;69564;37.974;23.708;2023-04-24T01:50:12;14.07;;;12.27;;
80255;SDS011;69564;37.974;23.708;2023-04-24T01:52:38;15.60;;;12.52;;
80255;SDS011;69564;37.974;23.708;2023-04-24T01:55:04;13.00;;;11.27;;
80255;SDS011;69564;37.974;23.708;2023-04-24T01:57:31;13.95;;;11.05;;
80255;SDS011;69564;37.974;23.708;2023-04-24T01:59:57;16.85;;;12.07;;
80255;SDS011;69564;37.974;23.708;2023-04-24T02:02:23;17.33;;;13.00;;
80255;SDS011;69564;37.974;23.708;2023-04-24T02:04:49;17.02;;;12.10;;
80255;SDS011;69564;37.974;23.708;2023-04-24T02:07:15;14.82;;;12.35;;
80255;SDS011;69564;37.974;23.708;2023-04-24T02:09:41;14.57;;;12.02;;
80255;SDS011;69564;37.974;23.708;2023-04-24T02:12:07;14.77;;;11.85;;
80255;SDS011;69564;37.974;23.708;2023-04-24T02:14:33;15.27;;;13.00;;
80255;SDS011;69564;37.974;23.708;2023-04-24T02:16:58;13.82;;;11.90;;
80255;SDS011;69564;37.974;23.708;2023-04-24T02:19:25;17.98;;;12.88;;
80255;SDS011;69564;37.974;23.708;2023-04-24T02:21:51;14.65;;;12.95;;
80255;SDS011;69564;37.974;23.708;2023-04-24T02:24:17;15.95;;;13.30;;
80255;SDS011;69564;37.974;23.708;2023-04-24T02:26:42;17.20;;;13.00;;
80255;SDS011;69564;37.974;23.708;2023-04-24T02:29:08;13.63;;;12.00;;
80255;SDS011;69564;37.974;23.708;2023-04-24T02:31:34;16.67;;;12.32;;
80255;SDS011;69564;37.974;23.708;2023-04-24T02:33:59;15.75;;;12.55;;
80255;SDS011;69564;37.974;23.708;2023-04-24T02:36:25;13.93;;;12.45;;
80255;SDS011;69564;37.974;23.708;2023-04-24T02:38:51;13.98;;;12.35;;
80255;SDS011;69564;37.974;23.708;2023-04-24T02:41:17;14.82;;;12.40;;
80255;SDS011;69564;37.974;23.708;2023-04-24T02:43:42;15.82;;;12.40;;
80255;SDS011;69564;37.974;23.708;2023-04-24T02:46:08;14.23;;;12.38;;
80255;SDS011;69564;37.974;23.708;2023-04-24T02:48:34;13.77;;;11.43;;
80255;SDS011;69564;37.974;23.708;2023-04-24T02:51:00;19.17;;;12.77;;
80255;SDS011;69564;37.974;23.708;2023-04-24T02:53:25;14.23;;;12.30;;
80255;SDS011;69564;37.974;23.708;2023-04-24T02:55:51;14.40;;;12.07;;
80255;SDS011;69564;37.974;23.708;2023-04-24T02:58:17;13.40;;;11.57;;
80255;SDS011;69564;37.974;23.708;2023-04-24T03:00:45;17.55;;;13.00;;
80255;SDS011;69564;37.974;23.708;2023-04-24T03:03:11;15.65;;;12.63;;
80255;SDS011;69564;37.974;23.708;2023-04-24T03:05:37;12.60;;;10.82;;
80255;SDS011;69564;37.974;23.708;2023-04-24T03:08:02;14.38;;;11.50;;
80255;SDS011;69564;37.974;23.708;2023-04-24T03:10:28;15.73;;;12.07;;
80255;SDS011;69564;37.974;23.708;2023-04-24T03:12:54;15.55;;;11.80;;
80255;SDS011;69564;37.974;23.708;2023-04-24T03:15:20;16.67;;;12.60;;
80255;SDS011;69564;37.974;23.708;2023-04-24T03:17:45;13.25;;;11.93;;
80255;SDS011;69564;37.974;23.708;2023-04-24T03:20:11;15.45;;;12.57;;
80255;SDS011;69564;37.974;23.708;2023-04-24T03:22:37;16.13;;;12.23;;
80255;SDS011;69564;37.974;23.708;2023-04-24T03:25:03;16.67;;;12.82;;
80255;SDS011;69564;37.974;23.708;2023-04-24T03:27:29;17.73;;;11.77;;
80255;SDS011;69564;37.974;23.708;2023-04-24T03:29:55;17.08;;;11.75;;
80255;SDS011;69564;37.974;23.708;2023-04-24T03:32:21;16.40;;;11.32;;
80255;SDS011;69564;37.974;23.708;2023-04-24T03:34:50;20.05;;;12.07;;
80255;SDS011;69564;37.974;23.708;2023-04-24T03:37:16;21.50;;;12.05;;
80255;SDS011;69564;37.974;23.708;2023-04-24T03:39:42;14.30;;;10.93;;
80255;SDS011;69564;37.974;23.708;2023-04-24T03:42:08;15.48;;;11.20;;
80255;SDS011;69564;37.974;23.708;2023-04-24T03:44:34;18.20;;;10.90;;
80255;SDS011;69564;37.974;23.708;2023-04-24T03:47:00;18.17;;;11.02;;
80255;SDS011;69564;37.974;23.708;2023-04-24T03:49:26;14.15;;;10.65;;
80255;SDS011;69564;37.974;23.708;2023-04-24T03:51:52;20.50;;;11.07;;
80255;SDS011;69564;37.974;23.708;2023-04-24T03:54:18;18.58;;;11.80;;
80255;SDS011;69564;37.974;23.708;2023-04-24T03:56:44;13.90;;;11.02;;
80255;SDS011;69564;37.974;23.708;2023-04-24T03:59:10;13.40;;;11.10;;
80255;SDS011;69564;37.974;23.708;2023-04-24T04:01:36;13.88;;;10.90;;
80255;SDS011;69564;37.974;23.708;2023-04-24T04:04:02;13.32;;;10.00;;
80255;SDS011;69564;37.974;23.708;2023-04-24T04:06:29;15.68;;;10.57;;
80255;SDS011;69564;37.974;23.708;2023-04-24T04:08:58;14.15;;;10.70;;
80255;SDS011;69564;37.974;23.708;2023-04-24T04:11:24;16.00;;;11.73;;
80255;SDS011;69564;37.974;23.708;2023-04-24T04:13:50;12.90;;;11.07;;
80255;SDS011;69564;37.974;23.708;2023-04-24T04:16:16;19.92;;;11.18;;
80255;SDS011;69564;37.974;23.708;2023-04-24T04:18:42;14.82;;;11.43;;
80255;SDS011;69564;37.974;23.708;2023-04-24T04:21:08;16.40;;;11.88;;
80255;SDS011;69564;37.974;23.708;2023-04-24T04:23:34;14.80;;;10.63;;
80255;SDS011;69564;37.974;23.708;2023-04-24T04:26:01;19.33;;;11.93;;
80255;SDS011;69564;37.974;23.708;2023-04-24T04:28:28;15.40;;;11.65;;
80255;SDS011;69564;37.974;23.708;2023-04-24T04:30:55;15.68;;;10.88;;
80255;SDS011;69564;37.974;23.708;2023-04-24T04:33:22;15.50;;;11.77;;
80255;SDS011;69564;37.974;23.708;2023-04-24T04:35:49;15.20;;;11.57;;
80255;SDS011;69564;37.974;23.708;2023-04-24T04:38:17;16.42;;;11.77;;
80255;SDS011;69564;37.974;23.708;2023-04-24T04:40:44;16.15;;;11.43;;
80255;SDS011;69564;37.974;23.708;2023-04-24T04:43:10;18.58;;;12.82;;
80255;SDS011;69564;37.974;23.708;2023-04-24T04:45:36;19.38;;;12.27;;
80255;SDS011;69564;37.974;23.708;2023-04-24T04:48:03;20.70;;;12.30;;
80255;SDS011;69564;37.974;23.708;2023-04-24T04:50:32;13.63;;;11.30;;
80255;SDS011;69564;37.974;23.708;2023-04-24T04:52:58;14.35;;;11.57;;
80255;SDS011;69564;37.974;23.708;2023-04-24T04:55:24;16.65;;;12.30;;
80255;SDS011;69564;37.974;23.708;2023-04-24T04:57:50;14.25;;;11.38;;
80255;SDS011;69564;37.974;23.708;2023-04-24T05:00:16;18.60;;;11.55;;
80255;SDS011;69564;37.974;23.708;2023-04-24T05:02:42;16.92;;;12.45;;
80255;SDS011;69564;37.974;23.708;2023-04-24T05:05:08;13.43;;;10.18;;
80255;SDS011;69564;37.974;23.708;2023-04-24T05:07:34;13.25;;;11.07;;
80255;SDS011;69564;37.974;23.708;2023-04-24T05:10:00;16.55;;;11.27;;
80255;SDS011;69564;37.974;23.708;2023-04-24T05:12:26;17.95;;;12.18;;
80255;SDS011;69564;37.974;23.708;2023-04-24T05:14:52;14.57;;;12.23;;
80255;SDS011;69564;37.974;23.708;2023-04-24T05:17:18;16.02;;;11.95;;
80255;SDS011;69564;37.974;23.708;2023-04-24T05:19:44;17.85;;;12.10;;
80255;SDS011;69564;37.974;23.708;2023-04-24T05:22:10;16.13;;;11.55;;
80255;SDS011;69564;37.974;23.708;2023-04-24T05:24:36;17.05;;;11.02;;
80255;SDS011;69564;37.974;23.708;2023-04-24T05:27:02;14.30;;;10.85;;
80255;SDS011;69564;37.974;23.708;2023-04-24T05:29:32;19.40;;;11.38;;
80255;SDS011;69564;37.974;23.708;2023-04-24T05:31:58;12.57;;;9.50;;
80255;SDS011;69564;37.974;23.708;2023-04-24T05:34:25;17.27;;;10.45;;
80255;SDS011;69564;37.974;23.708;2023-04-24T05:36:50;12.88;;;9.85;;
80255;SDS011;69564;37.974;23.708;2023-04-24T05:39:16;18.85;;;10.52;;
80255;SDS011;69564;37.974;23.708;2023-04-24T05:41:42;12.85;;;10.00;;
80255;SDS011;69564;37.974;23.708;2023-04-24T05:44:08;12.68;;;9.98;;
80255;SDS011;69564;37.974;23.708;2023-04-24T05:46:34;9.70;;;8.43;;
80255;SDS011;69564;37.974;23.708;2023-04-24T05:49:00;15.93;;;9.45;;
80255;SDS011;69564;37.974;23.708;2023-04-24T05:51:27;13.75;;;8.98;;
80255;SDS011;69564;37.974;23.708;2023-04-24T05:53:53;12.15;;;8.85;;
80255;SDS011;69564;37.974;23.708;2023-04-24T05:56:19;11.23;;;8.52;;
80255;SDS011;69564;37.974;23.708;2023-04-24T05:58:45;11.38;;;8.52;;
80255;SDS011;69564;37.974;23.708;2023-04-24T06:01:11;13.07;;;8.07;;
80255;SDS011;69564;37.974;23.708;2023-04-24T06:03:38;12.02;;;7.90;;
80255;SDS011;69564;37.974;23.708;2023-04-24T06:06:05;11.77;;;7.78;;
80255;SDS011;69564;37.974;23.708;2023-04-24T06:08:31;13.52;;;7.85;;
80255;SDS011;69564;37.974;23.708;2023-04-24T06:10:57;10.05;;;7.55;;
80255;SDS011;69564;37.974;23.708;2023-04-24T06:13:23;9.65;;;7.72;;
80255;SDS011;69564;37.974;23.708;2023-04-24T06:15:49;10.75;;;8.05;;
80255;SDS011;69564;37.974;23.708;2023-04-24T06:18:15;9.30;;;7.72;;
80255;SDS011;69564;37.974;23.708;2023-04-24T06:20:41;9.27;;;6.20;;
80255;SDS011;69564;37.974;23.708;2023-04-24T06:23:07;8.18;;;6.65;;
80255;SDS011;69564;37.974;23.708;2023-04-24T06:25:33;9.45;;;7.15;;
80255;SDS011;69564;37.974;23.708;2023-04-24T06:27:58;9.35;;;6.88;;
80255;SDS011;69564;37.974;23.708;2023-04-24T06:30:24;9.32;;;6.95;;
80255;SDS011;69564;37.974;23.708;2023-04-24T06:32:50;7.95;;;6.30;;
80255;SDS011;69564;37.974;23.708;2023-04-24T06:35:16;7.03;;;6.32;;
80255;SDS011;69564;37.974;23.708;2023-04-24T06:37:42;5.70;;;5.05;;
80255;SDS011;69564;37.974;23.708;2023-04-24T06:40:08;7.63;;;5.63;;
80255;SDS011;69564;37.974;23.708;2023-04-24T06:42:35;8.00;;;6.07;;
80255;SDS011;69564;37.974;23.708;2023-04-24T06:45:01;10.63;;;5.75;;
80255;SDS011;69564;37.974;23.708;2023-04-24T06:47:27;8.93;;;6.90;;
80255;SDS011;69564;37.974;23.708;2023-04-24T06:49:53;7.30;;;5.78;;
80255;SDS011;69564;37.974;23.708;2023-04-24T06:52:20;10.00;;;5.90;;
80255;SDS011;69564;37.974;23.708;2023-04-24T06:54:46;6.43;;;5.82;;
80255;SDS011;69564;37.974;23.708;2023-04-24T06:57:11;7.63;;;5.32;;
80255;SDS011;69564;37.974;23.708;2023-04-24T06:59:37;6.57;;;4.75;;
80255;SDS011;69564;37.974;23.708;2023-04-24T07:02:03;6.43;;;5.35;;
80255;SDS011;69564;37.974;23.708;2023-04-24T07:04:29;6.28;;;4.75;;
80255;SDS011;69564;37.974;23.708;2023-04-24T07:06:55;5.95;;;5.10;;
80255;SDS011;69564;37.974;23.708;2023-04-24T07:09:23;7.65;;;4.85;;
80255;SDS011;69564;37.974;23.708;2023-04-24T07:11:50;8.30;;;4.75;;
80255;SDS011;69564;37.974;23.708;2023-04-24T07:14:16;6.95;;;5.70;;
80255;SDS011;69564;37.974;23.708;2023-04-24T07:16:42;5.18;;;4.22;;
80255;SDS011;69564;37.974;23.708;2023-04-24T07:19:08;8.23;;;7.25;;
80255;SDS011;69564;37.974;23.708;2023-04-24T07:21:34;7.60;;;5.90;;
80255;SDS011;69564;37.974;23.708;2023-04-24T07:24:00;6.45;;;5.28;;
80255;SDS011;69564;37.974;23.708;2023-04-24T07:26:27;5.45;;;4.70;;
80255;SDS011;69564;37.974;23.708;2023-04-24T07:28:53;6.63;;;4.63;;
80255;SDS011;69564;37.974;23.708;2023-04-24T07:31:20;6.32;;;4.30;;
80255;SDS011;69564;37.974;23.708;2023-04-24T07:33:46;5.22;;;4.18;;
80255;SDS011;69564;37.974;23.708;2023-04-24T07:36:11;6.10;;;4.13;;
80255;SDS011;69564;37.974;23.708;2023-04-24T07:38:44;4.85;;;4.15;;
80255;SDS011;69564;37.974;23.708;2023-04-24T07:41:10;4.22;;;3.70;;
80255;SDS011;69564;37.974;23.708;2023-04-24T07:43:36;5.88;;;4.45;;
80255;SDS011;69564;37.974;23.708;2023-04-24T07:46:02;3.63;;;3.33;;
80255;SDS011;69564;37.974;23.708;2023-04-24T07:48:28;4.93;;;3.30;;
80255;SDS011;69564;37.974;23.708;2023-04-24T07:50:53;3.80;;;3.20;;
80255;SDS011;69564;37.974;23.708;2023-04-24T07:53:19;4.88;;;3.30;;
80255;SDS011;69564;37.974;23.708;2023-04-24T07:55:45;3.80;;;2.97;;
80255;SDS011;69564;37.974;23.708;2023-04-24T07:58:11;3.50;;;3.28;;
80255;SDS011;69564;37.974;23.708;2023-04-24T08:00:37;3.88;;;3.35;;
80255;SDS011;69564;37.974;23.708;2023-04-24T08:03:03;3.72;;;3.33;;
80255;SDS011;69564;37.974;23.708;2023-04-24T08:05:28;3.97;;;3.63;;
80255;SDS011;69564;37.974;23.708;2023-04-24T08:07:55;3.53;;;3.20;;
80255;SDS011;69564;37.974;23.708;2023-04-24T08:10:23;6.72;;;3.60;;
80255;SDS011;69564;37.974;23.708;2023-04-24T08:12:49;3.85;;;3.47;;
80255;SDS011;69564;37.974;23.708;2023-04-24T08:15:15;3.65;;;3.35;;
80255;SDS011;69564;37.974;23.708;2023-04-24T08:17:41;4.18;;;3.45;;
80255;SDS011;69564;37.974;23.708;2023-04-24T08:20:08;3.78;;;3.30;;
80255;SDS011;69564;37.974;23.708;2023-04-24T08:22:38;4.15;;;3.42;;
80255;SDS011;69564;37.974;23.708;2023-04-24T08:25:08;4.32;;;3.72;;
80255;SDS011;69564;37.974;23.708;2023-04-24T08:27:35;4.18;;;3.78;;
80255;SDS011;69564;37.974;23.708;2023-04-24T08:30:04;5.45;;;3.63;;
80255;SDS011;69564;37.974;23.708;2023-04-24T08:32:31;5.38;;;3.63;;
80255;SDS011;69564;37.974;23.708;2023-04-24T08:34:57;4.28;;;3.60;;
80255;SDS011;69564;37.974;23.708;2023-04-24T08:37:25;4.88;;;3.50;;
80255;SDS011;69564;37.974;23.708;2023-04-24T08:39:52;4.90;;;3.45;;
80255;SDS011;69564;37.974;23.708;2023-04-24T08:42:18;8.40;;;3.75;;
80255;SDS011;69564;37.974;23.708;2023-04-24T08:44:45;4.22;;;3.55;;
80255;SDS011;69564;37.974;23.708;2023-04-24T08:47:11;3.67;;;3.38;;
80255;SDS011;69564;37.974;23.708;2023-04-24T08:49:38;3.60;;;3.00;;
80255;SDS011;69564;37.974;23.708;2023-04-24T08:52:07;3.88;;;3.58;;
80255;SDS011;69564;37.974;23.708;2023-04-24T08:54:36;4.32;;;3.55;;
80255;SDS011;69564;37.974;23.708;2023-04-24T08:57:03;5.60;;;3.50;;
80255;SDS011;69564;37.974;23.708;2023-04-24T08:59:32;5.38;;;4.90;;
80255;SDS011;69564;37.974;23.708;2023-04-24T09:02:00;3.80;;;3.50;;
80255;SDS011;69564;37.974;23.708;2023-04-24T09:04:28;6.53;;;3.75;;
80255;SDS011;69564;37.974;23.708;2023-04-24T09:06:55;4.07;;;3.55;;
80255;SDS011;69564;37.974;23.708;2023-04-24T09:09:22;3.92;;;3.38;;
80255;SDS011;69564;37.974;23.708;2023-04-24T09:11:49;4.30;;;3.85;;
80255;SDS011;69564;37.974;23.708;2023-04-24T09:14:18;4.22;;;3.72;;
80255;SDS011;69564;37.974;23.708;2023-04-24T09:16:44;4.28;;;3.33;;
80255;SDS011;69564;37.974;23.708;2023-04-24T09:19:10;3.90;;;3.60;;
80255;SDS011;69564;37.974;23.708;2023-04-24T09:21:36;4.80;;;3.58;;
80255;SDS011;69564;37.974;23.708;2023-04-24T09:24:06;6.30;;;3.50;;
80255;SDS011;69564;37.974;23.708;2023-04-24T09:26:34;3.60;;;3.30;;
80255;SDS011;69564;37.974;23.708;2023-04-24T09:29:01;5.88;;;3.78;;
80255;SDS011;69564;37.974;23.708;2023-04-24T09:31:29;4.15;;;3.10;;
80255;SDS011;69564;37.974;23.708;2023-04-24T09:36:37;4.95;;;3.40;;
80255;SDS011;69564;37.974;23.708;2023-04-24T09:39:06;3.53;;;3.22;;
80255;SDS011;69564;37.974;23.708;2023-04-24T09:41:45;3.50;;;3.20;;
80255;SDS011;69564;37.974;23.708;2023-04-24T09:44:16;3.80;;;3.50;;
80255;SDS011;69564;37.974;23.708;2023-04-24T09:46:45;3.65;;;3.35;;
80255;SDS011;69564;37.974;23.708;2023-04-24T09:49:15;4.28;;;3.88;;
80255;SDS011;69564;37.974;23.708;2023-04-24T09:51:42;3.42;;;3.10;;
80255;SDS011;69564;37.974;23.708;2023-04-24T09:54:17;4.15;;;3.40;;
80255;SDS011;69564;37.974;23.708;2023-04-24T09:56:47;6.35;;;3.63;;
80255;SDS011;69564;37.974;23.708;2023-04-24T09:59:14;4.00;;;3.60;;
80255;SDS011;69564;37.974;23.708;2023-04-24T10:01:41;4.10;;;3.78;;
80255;SDS011;69564;37.974;23.708;2023-04-24T10:04:19;4.15;;;3.75;;
80255;SDS011;69564;37.974;23.708;2023-04-24T10:06:50;3.55;;;3.25;;
80255;SDS011;69564;37.974;23.708;2023-04-24T10:09:18;8.93;;;4.15;;
80255;SDS011;69564;37.974;23.708;2023-04-24T10:11:45;3.67;;;3.38;;
80255;SDS011;69564;37.974;23.708;2023-04-24T10:14:15;4.18;;;3.60;;
80255;SDS011;69564;37.974;23.708;2023-04-24T10:16:43;12.02;;;3.40;;
80255;SDS011;69564;37.974;23.708;2023-04-24T10:19:11;4.93;;;3.55;;
80255;SDS011;69564;37.974;23.708;2023-04-24T10:21:38;4.70;;;3.53;;
80255;SDS011;69564;37.974;23.708;2023-04-24T10:24:10;5.32;;;3.28;;
80255;SDS011;69564;37.974;23.708;2023-04-24T10:26:38;4.07;;;3.05;;
80255;SDS011;69564;37.974;23.708;2023-04-24T10:29:05;4.45;;;3.42;;
80255;SDS011;69564;37.974;23.708;2023-04-24T10:31:35;5.57;;;3.10;;
80255;SDS011;69564;37.974;23.708;2023-04-24T10:34:03;4.32;;;3.20;;
80255;SDS011;69564;37.974;23.708;2023-04-24T10:36:30;3.72;;;3.42;;
80255;SDS011;69564;37.974;23.708;2023-04-24T10:38:58;3.17;;;2.97;;
80255;SDS011;69564;37.974;23.708;2023-04-24T10:41:26;3.20;;;3.00;;
80255;SDS011;69564;37.974;23.708;2023-04-24T10:46:37;3.50;;;3.20;;
80255;SDS011;69564;37.974;23.708;2023-04-24T10:49:06;4.15;;;3.80;;
80255;SDS011;69564;37.974;23.708;2023-04-24T10:51:49;4.13;;;3.75;;
80255;SDS011;69564;37.974;23.708;2023-04-24T10:56:47;3.63;;;3.33;;
80255;SDS011;69564;37.974;23.708;2023-04-24T10:59:13;4.10;;;3.70;;
80255;SDS011;69564;37.974;23.708;2023-04-24T11:01:53;6.32;;;3.40;;
80255;SDS011;69564;37.974;23.708;2023-04-24T11:04:30;3.95;;;3.60;;
80255;SDS011;69564;37.974;23.708;2023-04-24T11:06:57;4.88;;;3.70;;
80255;SDS011;69564;37.974;23.708;2023-04-24T11:09:25;3.80;;;3.50;;
80255;SDS011;69564;37.974;23.708;2023-04-24T11:12:02;4.22;;;3.38;;
80255;SDS011;69564;37.974;23.708;2023-04-24T11:17:37;4.95;;;4.13;;
80255;SDS011;69564;37.974;23.708;2023-04-24T11:20:09;4.70;;;3.78;;
80255;SDS011;69564;37.974;23.708;2023-04-24T11:22:37;5.70;;;4.10;;
80255;SDS011;69564;37.974;23.708;2023-04-24T11:25:07;3.80;;;3.45;;
80255;SDS011;69564;37.974;23.708;2023-04-24T11:27:41;4.00;;;3.50;;
80255;SDS011;69564;37.974;23.708;2023-04-24T11:30:08;3.83;;;3.42;;
80255;SDS011;69564;37.974;23.708;2023-04-24T11:32:36;4.30;;;3.42;;
80255;SDS011;69564;37.974;23.708;2023-04-24T11:35:07;3.70;;;3.40;;
80255;SDS011;69564;37.974;23.708;2023-04-24T11:37:34;5.07;;;3.42;;
80255;SDS011;69564;37.974;23.708;2023-04-24T11:40:02;7.97;;;3.50;;
80255;SDS011;69564;37.974;23.708;2023-04-24T11:42:39;3.05;;;2.85;;
80255;SDS011;69564;37.974;23.708;2023-04-24T11:45:08;3.08;;;2.78;;
80255;SDS011;69564;37.974;23.708;2023-04-24T11:47:36;5.20;;;3.42;;
80255;SDS011;69564;37.974;23.708;2023-04-24T11:50:02;3.45;;;3.15;;
80255;SDS011;69564;37.974;23.708;2023-04-24T11:52:30;4.28;;;3.85;;
80255;SDS011;69564;37.974;23.708;2023-04-24T11:54:56;4.13;;;3.80;;
80255;SDS011;69564;37.974;23.708;2023-04-24T11:57:23;4.03;;;3.72;;
80255;SDS011;69564;37.974;23.708;2023-04-24T11:59:52;5.28;;;4.75;;
80255;SDS011;69564;37.974;23.708;2023-04-24T12:02:25;3.63;;;3.35;;
80255;SDS011;69564;37.974;23.708;2023-04-24T12:04:52;4.20;;;3.90;;
80255;SDS011;69564;37.974;23.708;2023-04-24T12:07:19;6.43;;;4.10;;
80255;SDS011;69564;37.974;23.708;2023-04-24T12:09:50;4.28;;;3.97;;
80255;SDS011;69564;37.974;23.708;2023-04-24T12:12:25;6.18;;;3.55;;
80255;SDS011;69564;37.974;23.708;2023-04-24T12:14:52;4.15;;;3.45;;
80255;SDS011;69564;37.974;23.708;2023-04-24T12:17:27;3.97;;;3.38;;
80255;SDS011;69564;37.974;23.708;2023-04-24T12:19:57;3.53;;;3.22;;
80255;SDS011;69564;37.974;23.708;2023-04-24T12:22:27;3.38;;;3.10;;
80255;SDS011;69564;37.974;23.708;2023-04-24T12:27:31;3.92;;;3.03;;
80255;SDS011;69564;37.974;23.708;2023-04-24T12:29:58;3.67;;;3.10;;
80255;SDS011;69564;37.974;23.708;2023-04-24T12:32:25;3.00;;;2.80;;
80255;SDS011;69564;37.974;23.708;2023-04-24T12:34:54;5.10;;;3.30;;
80255;SDS011;69564;37.974;23.708;2023-04-24T12:37:22;3.58;;;3.28;;
80255;SDS011;69564;37.974;23.708;2023-04-24T12:40:00;3.80;;;3.40;;
80255;SDS011;69564;37.974;23.708;2023-04-24T12:42:33;3.20;;;2.90;;
80255;SDS011;69564;37.974;23.708;2023-04-24T12:45:01;3.58;;;3.22;;
80255;SDS011;69564;37.974;23.708;2023-04-24T12:47:33;3.17;;;2.97;;
80255;SDS011;69564;37.974;23.708;2023-04-24T12:50:00;3.25;;;2.95;;
80255;SDS011;69564;37.974;23.708;2023-04-24T12:52:27;4.72;;;3.80;;
80255;SDS011;69564;37.974;23.708;2023-04-24T12:54:55;4.30;;;2.80;;
80255;SDS011;69564;37.974;23.708;2023-04-24T12:57:23;3.45;;;3.13;;
80255;SDS011;69564;37.974;23.708;2023-04-24T12:59:50;3.70;;;3.40;;
80255;SDS011;69564;37.974;23.708;2023-04-24T13:02:20;3.92;;;3.30;;
80255;SDS011;69564;37.974;23.708;2023-04-24T13:04:47;4.63;;;3.08;;
80255;SDS011;69564;37.974;23.708;2023-04-24T13:07:13;4.10;;;3.40;;
80255;SDS011;69564;37.974;23.708;2023-04-24T13:09:40;3.38;;;3.08;;
80255;SDS011;69564;37.974;23.708;2023-04-24T13:12:06;5.28;;;2.90;;
80255;SDS011;69564;37.974;23.708;2023-04-24T13:14:32;3.20;;;2.90;;
80255;SDS011;69564;37.974;23.708;2023-04-24T13:16:58;2.88;;;2.60;;
80255;SDS011;69564;37.974;23.708;2023-04-24T13:19:24;4.90;;;2.97;;
80255;SDS011;69564;37.974;23.708;2023-04-24T13:21:51;3.30;;;2.78;;
80255;SDS011;69564;37.974;23.708;2023-04-24T13:24:17;3.92;;;3.35;;
80255;SDS011;69564;37.974;23.708;2023-04-24T13:26:43;3.38;;;3.08;;
80255;SDS011;69564;37.974;23.708;2023-04-24T13:29:09;3.25;;;2.95;;
80255;SDS011;69564;37.974;23.708;2023-04-24T13:31:36;2.97;;;2.78;;
80255;SDS011;69564;37.974;23.708;2023-04-24T13:34:03;2.92;;;2.70;;
80255;SDS011;69564;37.974;23.708;2023-04-24T13:36:28;3.15;;;2.85;;
80255;SDS011;69564;37.974;23.708;2023-04-24T13:38:55;2.92;;;2.70;;
80255;SDS011;69564;37.974;23.708;2023-04-24T13:41:21;3.13;;;2.83;;
80255;SDS011;69564;37.974;23.708;2023-04-24T13:43:47;2.42;;;2.28;;
80255;SDS011;69564;37.974;23.708;2023-04-24T13:46:12;4.03;;;2.53;;
80255;SDS011;69564;37.974;23.708;2023-04-24T13:48:38;4.90;;;2.50;;
80255;SDS011;69564;37.974;23.708;2023-04-24T13:51:04;4.78;;;2.83;;
80255;SDS011;69564;37.974;23.708;2023-04-24T13:53:30;3.53;;;2.58;;
80255;SDS011;69564;37.974;23.708;2023-04-24T13:55:55;3.08;;;2.60;;
80255;SDS011;69564;37.974;23.708;2023-04-24T13:58:21;3.05;;;2.85;;
80255;SDS011;69564;37.974;23.708;2023-04-24T14:00:47;3.58;;;2.60;;
80255;SDS011;69564;37.974;23.708;2023-04-24T14:03:13;2.83;;;2.50;;
80255;SDS011;69564;37.974;23.708;2023-04-24T14:05:39;3.03;;;2.80;;
80255;SDS011;69564;37.974;23.708;2023-04-24T14:08:05;3.08;;;2.85;;
80255;SDS011;69564;37.974;23.708;2023-04-24T14:10:31;2.90;;;2.70;;
80255;SDS011;69564;37.974;23.708;2023-04-24T14:12:57;3.00;;;2.80;;
80255;SDS011;69564;37.974;23.708;2023-04-24T14:15:23;2.60;;;2.40;;
80255;SDS011;69564;37.974;23.708;2023-04-24T14:17:48;2.95;;;2.63;;
80255;SDS011;69564;37.974;23.708;2023-04-24T14:20:14;2.83;;;2.63;;
80255;SDS011;69564;37.974;23.708;2023-04-24T14:22:40;3.00;;;2.50;;
80255;SDS011;69564;37.974;23.708;2023-04-24T14:25:06;2.80;;;2.47;;
80255;SDS011;69564;37.974;23.708;2023-04-24T14:27:32;2.63;;;2.42;;
80255;SDS011;69564;37.974;23.708;2023-04-24T14:29:59;2.90;;;2.70;;
80255;SDS011;69564;37.974;23.708;2023-04-24T14:32:26;2.85;;;2.53;;
80255;SDS011;69564;37.974;23.708;2023-04-24T14:34:51;2.58;;;2.38;;